Time;durP1;ratioP1;P1;durP2;ratioP2;P2;SDS_P1;SDS_P2;PMS_P1;PMS_P2;Temp;Humidity;BMP_temperature;BMP_pressure;BME280_temperature;BME280_humidity;BME280_pressure;Samples;Min_cycle;Max_cycle;Signal;HPM_P1;HPM_P2
2022/07/27 00:01:06;;;;;;;8.35;7.55;;;;;;;28.64;37.12;98840.78;5091857;28;20038;-85
2022/07/27 00:03:32;;;;;;;7.57;6.65;;;;;;;28.51;37.06;98816.44;5090511;28;20035;-86
2022/07/27 00:05:57;;;;;;;7.90;7.20;;;;;;;28.48;37.20;98840.38;5091946;28;20482;-86
2022/07/27 00:08:23;;;;;;;8.50;7.70;;;;;;;28.61;37.20;98876.72;5090508;28;20529;-86
2022/07/27 00:10:49;;;;;;;8.13;7.43;;;;;;;28.68;37.46;98893.34;5091783;28;20020;-86
2022/07/27 00:13:15;;;;;;;8.90;7.35;;;;;;;28.37;37.44;98828.19;5091866;28;20073;-86
2022/07/27 00:15:41;;;;;;;8.00;7.20;;;;;;;29.00;37.67;98930.31;5090107;28;20020;-85
2022/07/27 00:18:07;;;;;;;7.85;7.05;;;;;;;26.68;37.55;98587.69;5091423;28;20034;-85
2022/07/27 00:20:32;;;;;;;8.10;7.30;;;;;;;28.91;37.90;98944.94;5091827;28;20031;-86
2022/07/27 00:22:58;;;;;;;8.73;7.93;;;;;;;28.51;37.85;98903.34;5095730;28;20052;-86
2022/07/27 00:25:25;;;;;;;8.25;7.55;;;;;;;28.86;37.66;98932.31;5095489;28;20024;-85
2022/07/27 00:27:51;;;;;;;7.75;7.10;;;;;;;27.69;37.95;98798.69;5095863;28;20023;-85
2022/07/27 00:30:17;;;;;;;7.97;7.22;;;;;;;28.58;38.17;98912.66;5094523;28;20107;-86
2022/07/27 00:32:42;;;;;;;7.82;7.10;;;;;;;27.73;38.04;98778.78;5095231;28;20016;-86
2022/07/27 00:35:08;;;;;;;8.02;7.25;;;;;;;28.80;38.05;98955.25;5093851;28;20508;-86
2022/07/27 00:37:34;;;;;;;7.68;7.00;;;;;;;28.79;38.03;98964.53;5095187;28;20524;-85
2022/07/27 00:39:59;;;;;;;8.30;7.50;;;;;;;28.52;38.43;98923.94;5094975;28;20034;-85
2022/07/27 00:42:27;;;;;;;7.45;6.75;;;;;;;28.48;38.26;98919.16;5093646;28;20030;-86
2022/07/27 00:44:54;;;;;;;7.70;7.00;;;;;;;28.00;38.22;98870.06;5094441;28;20121;-86
2022/07/27 00:47:24;;;;;;;8.40;7.10;;;;;;;28.61;38.68;98954.69;5113298;28;20016;-85
2022/07/27 00:49:49;;;;;;;8.95;7.55;;;;;;;28.01;38.75;98851.88;5103225;28;20024;-85
2022/07/27 00:52:15;;;;;;;7.90;7.20;;;;;;;28.67;38.90;98953.44;5095744;28;20024;-86
2022/07/27 00:54:41;;;;;;;7.80;6.97;;;;;;;27.80;38.44;98814.41;5095020;28;20496;-85
2022/07/27 00:57:12;;;;;;;7.70;7.00;;;;;;;28.63;39.08;98960.59;5093687;28;20057;-85
2022/07/27 00:59:37;;;;;;;7.60;6.90;;;;;;;28.52;38.85;98949.19;5095105;28;20420;-86
2022/07/27 01:02:04;;;;;;;7.72;6.78;;;;;;;28.57;38.65;98948.25;5093700;28;20044;-86
2022/07/27 01:04:29;;;;;;;7.85;7.15;;;;;;;28.58;38.86;98955.31;5095081;28;20557;-86
2022/07/27 01:06:55;;;;;;;7.43;6.75;;;;;;;28.34;38.75;98912.19;5093418;28;20024;-85
2022/07/27 01:12:07;;;;;;;9.13;6.50;;;;;;;28.50;39.07;98942.47;5094789;28;20181;-86
2022/07/27 01:14:33;;;;;;;8.88;7.97;;;;;;;28.17;39.13;98894.63;5094740;28;20412;-86
2022/07/27 01:16:59;;;;;;;9.00;7.75;;;;;;;28.20;39.18;98916.81;5094805;28;20020;-85
2022/07/27 01:19:25;;;;;;;8.10;7.28;;;;;;;28.22;39.29;98912.69;5094821;28;20028;-86
2022/07/27 01:21:50;;;;;;;7.85;7.05;;;;;;;28.44;39.17;98953.47;5093358;28;20412;-86
2022/07/27 01:24:15;;;;;;;8.50;6.70;;;;;;;28.23;39.14;98963.19;5093344;28;20024;-86
2022/07/27 01:26:41;;;;;;;9.73;7.38;;;;;;;28.17;39.29;98934.53;5092940;28;20031;-86
2022/07/27 01:29:07;;;;;;;7.15;6.47;;;;;;;28.15;39.45;98928.59;5093063;28;20020;-86
2022/07/27 01:31:32;;;;;;;8.20;7.40;;;;;;;27.35;39.48;98810.81;5094253;28;20024;-86
2022/07/27 01:33:58;;;;;;;8.93;7.15;;;;;;;27.76;39.73;98878.53;5094467;28;20085;-85
2022/07/27 01:36:24;;;;;;;13.63;7.95;;;;;;;28.22;40.02;98972.41;5094369;28;20492;-86
2022/07/27 01:38:49;;;;;;;13.15;8.18;;;;;;;28.00;40.18;98948.78;5094279;28;20024;-86
2022/07/27 01:41:14;;;;;;;8.00;7.30;;;;;;;27.92;39.98;98929.72;5094323;28;20027;-86
2022/07/27 01:43:40;;;;;;;8.75;8.00;;;;;;;27.96;40.13;98920.66;5094353;28;20024;-85
2022/07/27 01:46:05;;;;;;;9.15;8.25;;;;;;;27.75;40.48;98906.75;5093110;28;20144;-86
2022/07/27 01:48:31;;;;;;;12.13;7.93;;;;;;;27.95;40.46;98945.38;5092934;28;20016;-85
2022/07/27 01:50:57;;;;;;;9.27;8.30;;;;;;;28.08;40.41;98950.75;5094369;28;20099;-86
2022/07/27 01:53:22;;;;;;;10.68;9.10;;;;;;;27.24;40.62;98828.41;5092734;28;20020;-86
2022/07/27 01:55:48;;;;;;;13.95;9.20;;;;;;;28.08;40.64;98955.38;5092809;28;20028;-86
2022/07/27 01:58:14;;;;;;;9.30;8.25;;;;;;;28.11;40.67;98962.91;5092385;28;20110;-85
2022/07/27 02:00:40;;;;;;;11.02;9.70;;;;;;;27.91;40.59;98920.78;5092734;28;20024;-86
2022/07/27 02:03:07;;;;;;;10.82;9.80;;;;;;;27.66;40.70;98918.63;5093758;28;20503;-85
2022/07/27 02:05:34;;;;;;;10.00;9.10;;;;;;;27.73;40.89;98925.25;5093581;28;20031;-86
2022/07/27 02:07:59;;;;;;;10.38;9.23;;;;;;;27.84;40.80;98959.19;5091997;28;20077;-85
2022/07/27 02:10:25;;;;;;;13.95;9.73;;;;;;;27.93;41.02;98963.88;5093586;28;20103;-86
2022/07/27 02:12:51;;;;;;;10.20;9.30;;;;;;;27.60;41.04;98923.34;5092424;28;20020;-86
2022/07/27 02:15:19;;;;;;;9.80;8.75;;;;;;;27.88;41.07;98966.69;5093528;28;20510;-86
2022/07/27 02:17:46;;;;;;;10.85;9.82;;;;;;;27.80;41.15;98958.19;5092377;28;20142;-85
2022/07/27 02:20:13;;;;;;;13.07;9.73;;;;;;;27.75;41.22;98963.72;5093388;28;20404;-85
2022/07/27 02:22:39;;;;;;;12.93;10.07;;;;;;;26.99;41.67;98848.72;5091899;28;20028;-85
2022/07/27 02:25:05;;;;;;;12.88;10.20;;;;;;;27.05;41.52;98861.06;5092141;28;20081;-85
2022/07/27 02:27:31;;;;;;;12.50;9.95;;;;;;;26.82;41.75;98827.63;5092029;28;20026;-86
2022/07/27 02:29:56;;;;;;;11.68;10.63;;;;;;;27.25;41.77;98911.31;5093322;28;20099;-86
2022/07/27 02:32:22;;;;;;;11.55;9.75;;;;;;;27.60;41.92;98955.88;5093468;28;20480;-85
2022/07/27 02:34:48;;;;;;;11.38;10.18;;;;;;;27.55;41.96;98961.41;5093492;28;20127;-85
2022/07/27 02:37:13;;;;;;;13.05;9.52;;;;;;;27.62;41.59;98993.59;5093302;28;20031;-86
2022/07/27 02:39:39;;;;;;;12.20;9.73;;;;;;;26.95;41.76;98857.72;5091534;28;20016;-86
2022/07/27 02:42:04;;;;;;;10.20;9.00;;;;;;;27.10;41.97;98898.88;5091245;28;20024;-86
2022/07/27 02:44:30;;;;;;;11.52;9.65;;;;;;;27.48;41.97;98963.72;5091025;28;20420;-86
2022/07/27 02:46:55;;;;;;;11.73;9.93;;;;;;;27.33;42.13;98962.13;5092964;28;20054;-86
2022/07/27 02:49:21;;;;;;;13.95;10.00;;;;;;;27.43;42.21;98959.19;5091375;28;20052;-86
2022/07/27 02:51:51;;;;;;;10.88;9.63;;;;;;;27.13;42.33;98941.66;5091380;28;20027;-85
2022/07/27 02:54:23;;;;;;;12.43;10.17;;;;;;;26.01;42.44;98758.75;5091342;28;20058;-85
2022/07/27 02:56:49;;;;;;;12.75;8.98;;;;;;;27.06;42.56;98943.94;5090972;28;20052;-86
2022/07/27 02:59:14;;;;;;;13.30;10.02;;;;;;;25.75;42.97;98723.22;5092110;28;20063;-85
2022/07/27 03:01:39;;;;;;;12.10;9.88;;;;;;;26.99;42.75;98926.50;5092507;28;20016;-85
2022/07/27 03:04:05;;;;;;;10.68;9.52;;;;;;;27.08;42.70;98941.75;5092601;28;20020;-86
2022/07/27 03:06:30;;;;;;;10.10;9.10;;;;;;;27.22;42.86;98964.22;5094018;28;20027;-85
2022/07/27 03:08:56;;;;;;;12.70;9.13;;;;;;;26.80;42.86;98918.41;5115363;28;20008;-86
2022/07/27 03:11:21;;;;;;;11.82;9.35;;;;;;;26.91;43.15;98939.59;5095784;28;20385;-85
2022/07/27 03:13:47;;;;;;;10.57;9.48;;;;;;;26.33;43.26;98852.66;5093019;28;20071;-85
2022/07/27 03:16:12;;;;;;;12.80;9.65;;;;;;;26.94;43.26;98970.72;5093123;28;20031;-85
2022/07/27 03:18:37;;;;;;;14.00;9.93;;;;;;;25.89;43.38;98816.00;5092228;28;20409;-85
2022/07/27 03:21:03;;;;;;;13.80;9.43;;;;;;;27.00;43.55;98971.44;5090761;28;20024;-85
2022/07/27 03:23:28;;;;;;;10.38;9.40;;;;;;;26.55;43.31;98898.00;5090835;28;20020;-85
2022/07/27 03:25:54;;;;;;;12.13;9.43;;;;;;;26.18;43.46;98826.63;5090840;28;20427;-85
2022/07/27 03:28:19;;;;;;;12.90;9.27;;;;;;;26.71;43.38;98912.88;5090667;28;20031;-85
2022/07/27 03:30:45;;;;;;;13.13;10.18;;;;;;;26.60;43.67;98912.25;5092085;28;20027;-85
2022/07/27 03:33:10;;;;;;;12.02;9.77;;;;;;;27.03;43.35;98965.44;5092097;28;20103;-85
2022/07/27 03:35:36;;;;;;;10.75;9.65;;;;;;;26.20;43.40;98837.16;5091916;28;20420;-85
2022/07/27 03:38:02;;;;;;;15.68;10.45;;;;;;;27.08;43.76;98968.03;5090810;28;20023;-85
2022/07/27 03:40:33;;;;;;;16.63;9.82;;;;;;;26.85;43.55;98942.69;5091038;28;20085;-85
2022/07/27 03:42:58;;;;;;;;;;;;;;;26.78;44.02;98970.19;5092545;28;20028;-86
2022/07/27 03:45:24;;;;;;;11.63;9.98;;;;;;;26.79;43.48;98979.91;5091796;28;20002;-85
2022/07/27 03:47:50;;;;;;;11.18;9.45;;;;;;;26.83;43.96;98977.41;5090427;28;20102;-85
2022/07/27 03:50:15;;;;;;;12.20;9.75;;;;;;;26.43;43.79;98917.44;5090651;28;20501;-85
2022/07/27 03:52:41;;;;;;;11.27;10.05;;;;;;;26.40;43.71;98938.88;5090578;28;20020;-85
2022/07/27 03:55:06;;;;;;;12.20;10.20;;;;;;;25.55;43.67;98761.38;5091404;28;20138;-86
2022/07/27 03:57:32;;;;;;;12.43;10.38;;;;;;;26.49;43.66;98891.88;5090194;28;20032;-86
2022/07/27 03:59:58;;;;;;;13.02;10.18;;;;;;;27.07;43.63;98991.63;5090242;28;20556;-86
2022/07/27 04:02:23;;;;;;;16.77;10.70;;;;;;;26.64;43.63;98912.47;5090440;28;20020;-85
2022/07/27 04:04:48;;;;;;;13.45;9.63;;;;;;;26.40;43.74;98892.84;5092124;28;20500;-86
2022/07/27 04:07:14;;;;;;;15.95;9.90;;;;;;;26.42;43.64;98893.38;5093278;28;20105;-85
2022/07/27 04:09:39;;;;;;;12.18;9.18;;;;;;;26.70;43.81;98970.84;5092005;28;20512;-86
2022/07/27 04:12:05;;;;;;;9.18;8.27;;;;;;;26.04;43.63;98841.22;5090232;28;20489;-86
2022/07/27 04:14:30;;;;;;;11.02;9.93;;;;;;;26.50;44.06;98928.69;5090173;28;20074;-86
2022/07/27 04:16:56;;;;;;;12.68;9.73;;;;;;;26.22;44.17;98908.03;5090072;28;20081;-85
2022/07/27 04:19:21;;;;;;;14.18;10.00;;;;;;;26.60;44.04;98971.81;5091263;28;20024;-86
2022/07/27 04:21:47;;;;;;;12.75;9.95;;;;;;;26.40;44.15;98936.16;5089901;28;20020;-86
2022/07/27 04:24:13;;;;;;;13.27;10.23;;;;;;;26.79;44.17;99009.72;5090207;28;20489;-86
2022/07/27 04:26:38;;;;;;;13.65;10.80;;;;;;;26.46;44.18;98959.34;5091442;28;20017;-86
2022/07/27 04:29:04;;;;;;;14.27;11.05;;;;;;;26.83;44.11;99016.16;5091240;28;20055;-86
2022/07/27 04:31:30;;;;;;;13.43;10.82;;;;;;;26.86;44.42;99004.72;5091476;28;20027;-86
2022/07/27 04:33:56;;;;;;;13.40;10.75;;;;;;;26.03;44.23;98866.66;5090217;28;20089;-85
2022/07/27 04:36:21;;;;;;;11.98;10.77;;;;;;;26.53;44.39;98966.00;5091736;28;20028;-86
2022/07/27 04:38:46;;;;;;;14.90;11.18;;;;;;;25.17;44.45;98774.91;5090195;28;20432;-86
2022/07/27 04:41:12;;;;;;;13.20;11.75;;;;;;;26.65;44.41;98989.09;5090041;28;20435;-85
2022/07/27 04:43:38;;;;;;;13.75;11.77;;;;;;;26.84;44.48;99025.88;5091270;28;20016;-86
2022/07/27 04:46:04;;;;;;;12.07;10.98;;;;;;;26.44;44.40;98950.72;5091169;28;20020;-85
2022/07/27 04:48:33;;;;;;;12.43;11.10;;;;;;;26.91;44.44;99025.50;5089988;28;20412;-85
2022/07/27 04:50:59;;;;;;;15.05;10.73;;;;;;;26.21;44.21;98909.91;5090093;28;20412;-85
2022/07/27 04:53:24;;;;;;;12.93;11.00;;;;;;;26.77;44.22;99003.78;5091294;28;20020;-86
2022/07/27 04:55:50;;;;;;;12.55;11.23;;;;;;;26.64;44.36;98977.44;5091393;28;20415;-86
2022/07/27 04:58:16;;;;;;;12.57;11.35;;;;;;;26.65;44.67;98989.09;5097334;28;20054;-86
2022/07/27 05:00:44;;;;;;;11.82;10.63;;;;;;;26.57;44.82;98988.66;5102605;28;20034;-86
2022/07/27 05:03:10;;;;;;;13.73;12.27;;;;;;;26.76;45.22;99036.59;5091965;28;20024;-85
2022/07/27 05:05:36;;;;;;;12.38;11.10;;;;;;;26.84;44.95;99033.19;5090656;28;20031;-86
2022/07/27 05:08:02;;;;;;;15.00;12.32;;;;;;;26.87;45.22;99036.13;5095459;28;20024;-86
2022/07/27 05:10:28;;;;;;;15.82;11.93;;;;;;;26.50;44.94;98996.34;5095385;28;20047;-86
2022/07/27 05:12:53;;;;;;;13.23;11.38;;;;;;;26.29;44.79;98943.63;5095247;28;20079;-85
2022/07/27 05:15:19;;;;;;;15.07;10.63;;;;;;;27.09;44.85;99053.66;5093888;28;20510;-85
2022/07/27 05:17:44;;;;;;;12.43;11.10;;;;;;;27.15;44.90;99045.13;5094844;28;20062;-85
2022/07/27 05:20:10;;;;;;;12.98;11.63;;;;;;;26.95;44.46;99004.03;5093348;28;20016;-85
2022/07/27 05:22:36;;;;;;;11.68;10.52;;;;;;;27.33;44.41;99048.88;5093526;28;20036;-85
2022/07/27 05:25:02;;;;;;;12.57;11.27;;;;;;;27.28;44.06;99027.28;5094583;28;20451;-86
2022/07/27 05:27:27;;;;;;;12.15;11.02;;;;;;;27.26;44.01;99029.47;5094352;28;20024;-86
2022/07/27 05:29:53;;;;;;;12.80;11.60;;;;;;;26.75;44.00;98934.75;5094788;28;20031;-86
2022/07/27 05:32:18;;;;;;;12.02;10.90;;;;;;;27.15;43.75;99001.78;5094138;28;20024;-86
2022/07/27 05:34:44;;;;;;;10.90;9.90;;;;;;;27.58;43.74;99054.94;5093026;28;20024;-86
2022/07/27 05:37:11;;;;;;;12.85;10.07;;;;;;;26.90;43.64;98938.00;5093020;28;20110;-85
2022/07/27 05:39:37;;;;;;;10.98;9.98;;;;;;;26.60;43.50;98890.59;5092290;28;20073;-86
2022/07/27 05:42:03;;;;;;;10.90;9.90;;;;;;;27.37;43.55;99017.34;5094182;28;20028;-86
2022/07/27 05:44:29;;;;;;;11.52;10.40;;;;;;;27.16;43.73;98976.28;5092869;28;20042;-86
2022/07/27 05:46:55;;;;;;;10.23;9.32;;;;;;;27.28;43.34;99007.50;5092099;28;20481;-86
2022/07/27 05:49:21;;;;;;;10.75;9.85;;;;;;;26.93;43.67;98950.13;5093580;28;20012;-86
2022/07/27 05:51:46;;;;;;;11.40;10.30;;;;;;;27.30;43.55;99008.81;5093384;28;20016;-87
2022/07/27 05:54:12;;;;;;;10.90;9.90;;;;;;;27.22;43.51;98995.94;5093193;28;20028;-86
2022/07/27 05:56:37;;;;;;;11.15;9.90;;;;;;;27.35;43.61;99033.09;5088496;28;20075;-86
2022/07/27 05:59:03;;;;;;;10.80;9.98;;;;;;;27.55;43.09;99045.50;5091791;28;20058;-86
2022/07/27 06:01:28;;;;;;;10.75;9.65;;;;;;;27.51;43.38;99045.28;5091254;28;20416;-86
2022/07/27 06:03:53;;;;;;;10.57;9.55;;;;;;;27.03;43.48;98965.44;5093129;28;20059;-86
2022/07/27 06:09:03;;;;;;;10.55;9.55;;;;;;;27.47;43.25;99016.34;5093484;28;20122;-87
2022/07/27 06:11:29;;;;;;;10.55;9.57;;;;;;;27.46;43.30;99012.81;5091125;28;20055;-86
2022/07/27 06:13:54;;;;;;;12.05;10.52;;;;;;;27.28;43.13;98983.91;5092555;28;20493;-86
2022/07/27 06:16:21;;;;;;;11.85;9.65;;;;;;;27.33;42.91;98993.84;5091988;28;20028;-86
2022/07/27 06:18:46;;;;;;;13.52;10.63;;;;;;;28.09;42.43;99081.84;5092714;28;20070;-86
2022/07/27 06:21:12;;;;;;;11.35;10.15;;;;;;;28.01;42.63;99058.13;5092209;28;20059;-86
2022/07/27 06:23:37;;;;;;;14.90;10.45;;;;;;;27.76;42.60;98997.88;5092296;28;20027;-86
2022/07/27 06:26:03;;;;;;;10.82;9.82;;;;;;;27.20;42.47;98909.53;5092897;28;20095;-86
2022/07/27 06:28:29;;;;;;;12.13;10.98;;;;;;;27.96;42.43;99025.69;5092764;28;20069;-87
2022/07/27 06:30:54;;;;;;;12.13;10.98;;;;;;;27.67;42.32;98985.34;5092100;28;20024;-86
2022/07/27 06:33:26;;;;;;;12.45;11.35;;;;;;;26.76;42.36;98864.03;5092429;28;20016;-86
2022/07/27 06:35:53;;;;;;;13.15;11.90;;;;;;;28.30;42.02;99072.19;5092686;28;20038;-86
2022/07/27 06:38:19;;;;;;;12.75;11.55;;;;;;;27.97;41.93;99008.28;5091954;28;20059;-86
2022/07/27 06:40:46;;;;;;;11.85;10.73;;;;;;;27.66;41.75;98935.72;5091513;28;20051;-86
2022/07/27 06:43:11;;;;;;;13.43;12.05;;;;;;;28.54;41.65;99046.66;5092333;28;20462;-87
2022/07/27 06:45:37;;;;;;;15.07;11.65;;;;;;;28.51;41.74;99036.41;5089236;28;20107;-86
2022/07/27 06:48:02;;;;;;;13.25;11.85;;;;;;;28.59;41.62;99041.09;5093131;28;20420;-87
2022/07/27 06:50:28;;;;;;;14.80;13.30;;;;;;;28.67;41.08;99041.16;5090763;28;20493;-87
2022/07/27 06:52:53;;;;;;;13.30;12.10;;;;;;;27.64;40.98;98870.13;5090973;28;20048;-87
2022/07/27 06:55:19;;;;;;;13.32;11.93;;;;;;;28.58;40.98;98991.41;5092454;28;20030;-87
2022/07/27 06:57:45;;;;;;;12.82;11.43;;;;;;;28.54;40.67;98976.03;5091941;28;20060;-87
2022/07/27 07:00:11;;;;;;;13.07;11.73;;;;;;;28.88;40.93;99037.97;5091227;28;20044;-88
2022/07/27 07:02:38;;;;;;;13.18;11.88;;;;;;;28.51;40.73;98946.78;5092278;28;20101;-87
2022/07/27 07:05:04;;;;;;;12.73;11.43;;;;;;;28.60;40.44;98955.78;5091497;28;20389;-87
2022/07/27 07:07:30;;;;;;;13.35;11.75;;;;;;;28.28;40.26;98897.94;5090339;28;20138;-87
2022/07/27 07:09:55;;;;;;;12.90;11.70;;;;;;;29.29;40.04;99065.72;5090521;28;20020;-87
2022/07/27 07:12:21;;;;;;;14.40;12.95;;;;;;;29.09;40.16;99030.91;5090777;28;20408;-86
2022/07/27 07:14:46;;;;;;;13.80;12.40;;;;;;;28.70;40.05;98978.06;5090056;28;20106;-86
2022/07/27 07:17:12;;;;;;;14.63;13.05;;;;;;;28.54;39.94;98940.75;5090455;28;20027;-86
2022/07/27 07:19:37;;;;;;;14.45;13.10;;;;;;;28.54;39.83;98927.16;5087875;28;20456;-87
2022/07/27 07:22:06;;;;;;;14.38;12.98;;;;;;;28.18;39.87;98879.13;5087978;28;20032;-86
2022/07/27 07:24:31;;;;;;;14.45;13.05;;;;;;;28.83;39.37;98943.75;5090761;28;20055;-87
2022/07/27 07:26:57;;;;;;;14.63;13.32;;;;;;;28.99;39.78;98953.16;5091762;28;20107;-86
2022/07/27 07:29:22;;;;;;;13.07;11.77;;;;;;;28.39;39.53;98834.13;5089830;28;20024;-87
2022/07/27 07:31:47;;;;;;;13.38;12.02;;;;;;;28.85;39.24;98889.94;5090579;28;20024;-86
2022/07/27 07:34:13;;;;;;;13.30;12.15;;;;;;;29.60;39.29;99015.94;5090216;28;20050;-86
2022/07/27 07:36:38;;;;;;;14.50;13.00;;;;;;;29.95;38.51;99020.34;5091227;28;20122;-86
2022/07/27 07:39:04;;;;;;;15.20;13.07;;;;;;;29.88;38.50;99017.31;5082457;28;20484;-86
2022/07/27 07:41:29;;;;;;;15.23;12.57;;;;;;;30.11;38.40;99052.59;5081956;28;20020;-87
2022/07/27 07:43:55;;;;;;;15.27;13.98;;;;;;;29.95;38.14;99017.63;5085062;28;20415;-87
2022/07/27 07:46:20;;;;;;;15.85;13.80;;;;;;;28.95;38.22;98858.97;5093026;28;20023;-87
2022/07/27 07:48:46;;;;;;;15.00;13.60;;;;;;;29.73;38.09;98955.97;5090865;28;20024;-86
2022/07/27 07:51:11;;;;;;;16.98;13.25;;;;;;;28.63;37.79;98767.75;5096189;28;20031;-86
2022/07/27 07:53:37;;;;;;;13.55;12.45;;;;;;;30.33;37.72;99026.00;5098214;28;20489;-87
2022/07/27 07:56:03;;;;;;;16.58;15.07;;;;;;;30.14;37.77;98975.72;5091084;28;20020;-86
2022/07/27 07:58:28;;;;;;;14.73;13.30;;;;;;;30.36;37.61;98992.69;5089644;28;20044;-86
2022/07/27 08:00:54;;;;;;;15.45;14.15;;;;;;;30.56;37.53;99025.88;5092477;28;20469;-87
2022/07/27 08:03:19;;;;;;;14.50;13.02;;;;;;;30.82;37.25;99048.47;5090574;28;20436;-86
2022/07/27 08:05:45;;;;;;;14.55;13.15;;;;;;;30.24;37.24;98948.97;5090311;28;20020;-87
2022/07/27 08:08:10;;;;;;;15.43;14.13;;;;;;;29.87;37.19;98879.63;5090868;28;20468;-86
2022/07/27 08:10:36;;;;;;;14.00;12.60;;;;;;;31.01;36.84;99053.53;5095505;28;20020;-86
2022/07/27 08:13:01;;;;;;;13.63;12.52;;;;;;;30.70;36.72;98998.47;5090015;28;20024;-84
2022/07/27 08:15:27;;;;;;;14.73;13.23;;;;;;;29.92;36.48;98841.34;5089884;28;20059;-86
2022/07/27 08:17:53;;;;;;;13.68;12.40;;;;;;;31.23;36.81;99045.19;5084159;28;20539;-87
2022/07/27 08:20:20;;;;;;;15.18;13.82;;;;;;;30.41;36.17;98890.94;5069357;28;20059;-87
2022/07/27 08:22:45;;;;;;;16.92;15.52;;;;;;;31.14;36.42;99021.75;5086454;28;20032;-87
2022/07/27 08:25:11;;;;;;;14.57;13.27;;;;;;;31.12;36.47;98983.88;5091185;28;20020;-86
2022/07/27 08:27:37;;;;;;;14.40;13.20;;;;;;;30.88;36.45;98929.94;5090150;28;20106;-86
2022/07/27 08:30:04;;;;;;;14.80;13.45;;;;;;;31.72;36.32;99040.16;5087930;28;20028;-87
2022/07/27 08:32:30;;;;;;;15.52;14.02;;;;;;;31.68;36.12;99022.81;5090089;28;20012;-87
2022/07/27 08:34:55;;;;;;;15.27;13.98;;;;;;;31.94;35.82;99033.59;5088914;28;20115;-86
2022/07/27 08:37:21;;;;;;;14.60;13.23;;;;;;;31.89;35.67;99004.56;5090324;28;20084;-87
2022/07/27 08:39:47;;;;;;;14.20;12.98;;;;;;;32.11;35.73;99022.59;5090857;28;20024;-86
2022/07/27 08:42:12;;;;;;;15.52;13.43;;;;;;;32.18;35.15;99028.31;5094852;28;20093;-86
2022/07/27 08:44:40;;;;;;;15.40;14.02;;;;;;;32.33;35.03;99016.00;5096407;28;20024;-86
2022/07/27 08:47:07;;;;;;;16.55;15.07;;;;;;;31.59;35.04;98869.25;5094084;28;20024;-86
2022/07/27 08:49:33;;;;;;;15.73;14.10;;;;;;;30.96;34.63;98790.06;5094227;28;20026;-86
2022/07/27 08:52:00;;;;;;;14.50;13.20;;;;;;;31.64;34.86;98832.75;5094660;28;20016;-86
2022/07/27 08:54:26;;;;;;;15.48;13.98;;;;;;;32.50;34.54;98950.25;5096749;28;20454;-87
2022/07/27 08:56:52;;;;;;;15.40;14.23;;;;;;;33.02;34.45;99020.03;5094050;28;20085;-86
2022/07/27 08:59:17;;;;;;;14.57;13.07;;;;;;;32.82;33.94;98967.81;5093674;28;20036;-86
2022/07/27 09:01:43;;;;;;;15.65;14.13;;;;;;;32.62;33.98;98940.50;5093551;28;20066;-86
2022/07/27 09:04:08;;;;;;;14.55;13.35;;;;;;;33.06;33.80;98982.66;5095433;28;20028;-87
2022/07/27 09:06:48;;;;;;;12.95;11.75;;;;;;;33.39;33.01;99016.22;5092962;28;20016;-87
2022/07/27 09:09:17;;;;;;;15.82;13.00;;;;;;;33.57;33.05;99027.75;5092683;28;20107;-86
2022/07/27 09:11:43;;;;;;;13.13;12.02;;;;;;;33.00;32.92;98918.38;5093275;28;20324;-87
2022/07/27 09:14:11;;;;;;;13.68;12.57;;;;;;;33.47;32.47;98938.69;5095009;28;20047;-86
2022/07/27 09:16:37;;;;;;;13.68;12.57;;;;;;;33.35;32.47;98902.31;5092768;28;20024;-87
2022/07/27 09:19:07;;;;;;;14.90;13.40;;;;;;;34.21;32.07;99012.53;5096895;28;20465;-86
2022/07/27 09:21:34;;;;;;;13.43;12.27;;;;;;;34.33;31.83;99016.03;5095432;28;20042;-86
2022/07/27 09:24:13;;;;;;;12.93;11.73;;;;;;;34.55;31.02;99003.72;5094201;28;20096;-86
2022/07/27 09:26:40;;;;;;;15.20;13.40;;;;;;;34.25;31.33;98922.97;5093689;28;20024;-86
2022/07/27 09:29:06;;;;;;;13.88;12.57;;;;;;;34.51;30.75;98949.94;5073551;28;20020;-86
2022/07/27 09:31:41;;;;;;;11.93;10.82;;;;;;;35.10;30.29;99021.28;5072342;28;20107;-86
2022/07/27 09:34:07;;;;;;;13.18;12.00;;;;;;;34.84;29.98;98974.34;5072288;28;20100;-86
2022/07/27 09:36:49;;;;;;;12.90;11.60;;;;;;;35.22;29.89;99012.97;5072781;28;20111;-86
2022/07/27 09:39:19;;;;;;;13.18;11.93;;;;;;;35.02;29.39;98954.47;5082794;28;20059;-85
2022/07/27 09:41:55;;;;;;;11.95;10.65;;;;;;;35.29;28.99;98974.72;5092473;28;20028;-86
2022/07/27 09:44:39;;;;;;;11.65;10.75;;;;;;;35.65;28.90;98997.53;5092117;28;20055;-87
2022/07/27 09:47:25;;;;;;;12.63;11.45;;;;;;;35.88;28.36;98990.25;5093656;28;20020;-86
2022/07/27 09:49:52;;;;;;;13.23;12.02;;;;;;;36.00;28.24;98991.28;5092559;28;20019;-86
2022/07/27 09:52:23;;;;;;;11.55;10.60;;;;;;;35.81;28.05;98937.91;5093374;28;20036;-86
2022/07/27 09:54:49;;;;;;;13.50;11.70;;;;;;;35.79;28.05;98909.97;5063975;28;20157;-86
2022/07/27 09:57:14;;;;;;;11.07;10.23;;;;;;;36.11;27.82;98918.09;5033128;28;20030;-86
2022/07/27 09:59:40;;;;;;;12.23;11.13;;;;;;;35.84;27.22;98842.97;5033039;28;20091;-86
2022/07/27 10:02:06;;;;;;;12.40;11.23;;;;;;;36.91;26.82;98972.28;5057686;28;20048;-86
2022/07/27 10:04:32;;;;;;;11.88;10.50;;;;;;;37.16;26.60;98984.53;5052888;28;20025;-86
2022/07/27 10:06:57;;;;;;;10.55;9.55;;;;;;;37.08;26.11;98936.00;5053373;28;20515;-86
2022/07/27 10:09:23;;;;;;;13.30;12.20;;;;;;;37.03;26.47;98919.00;5052904;28;20029;-86
2022/07/27 10:11:48;;;;;;;11.40;10.40;;;;;;;36.91;25.74;98890.50;5053384;28;20037;-86
2022/07/27 10:14:15;;;;;;;10.13;9.23;;;;;;;37.22;25.23;98922.47;5055176;28;20496;-85
2022/07/27 10:16:42;;;;;;;10.15;9.35;;;;;;;37.39;25.24;98929.44;5030939;28;20037;-86
2022/07/27 10:19:11;;;;;;;10.50;9.50;;;;;;;37.89;24.88;98987.19;5013616;28;20030;-86
2022/07/27 10:21:38;;;;;;;10.50;9.50;;;;;;;37.36;24.79;98919.16;5056256;28;20037;-86
2022/07/27 10:24:07;;;;;;;10.32;9.32;;;;;;;37.91;24.84;98977.44;5031442;28;20033;-86
2022/07/27 10:26:38;;;;;;;10.32;9.32;;;;;;;37.48;24.54;98885.88;5031905;28;20167;-86
2022/07/27 10:29:12;;;;;;;11.43;10.32;;;;;;;38.24;23.95;98964.84;5032939;28;20029;-87
2022/07/27 10:31:42;;;;;;;10.13;9.20;;;;;;;37.78;24.21;98880.38;5045544;28;20416;-86
2022/07/27 10:34:09;;;;;;;10.48;9.52;;;;;;;38.06;24.13;98901.22;5029061;28;20491;-86
2022/07/27 10:36:34;;;;;;;10.23;8.85;;;;;;;38.48;23.58;98967.88;5034515;28;20114;-86
2022/07/27 10:39:04;;;;;;;10.13;9.18;;;;;;;38.57;23.78;98959.28;5032738;28;20071;-86
2022/07/27 10:41:38;;;;;;;11.52;10.52;;;;;;;38.76;23.59;98974.91;5031110;28;20506;-86
2022/07/27 10:44:13;;;;;;;10.38;9.52;;;;;;;38.89;23.50;98959.66;5050412;28;20158;-86
2022/07/27 10:47:26;;;;;;;12.40;11.30;;;;;;;38.68;22.52;98896.00;5052193;28;20063;-86
2022/07/27 10:50:14;;;;;;;9.73;8.65;;;;;;;39.04;22.32;98927.44;4989230;28;20030;-86
2022/07/27 10:52:54;;;;;;;10.02;9.20;;;;;;;39.37;22.40;98956.88;5021990;28;20087;-86
2022/07/27 10:55:28;;;;;;;10.30;9.50;;;;;;;39.47;22.36;98949.88;5044218;28;20059;-86
2022/07/27 10:58:14;;;;;;;11.02;10.13;;;;;;;39.37;22.62;98930.06;5048838;28;20559;-86
2022/07/27 11:00:48;;;;;;;16.60;15.10;;;;;;;39.83;22.26;98945.34;5041113;28;20044;-86
2022/07/27 11:03:25;;;;;;;10.90;10.00;;;;;;;39.66;22.00;98895.13;5034137;28;20036;-86
2022/07/27 11:06:10;;;;;;;10.20;9.30;;;;;;;39.31;21.15;98812.03;5052363;28;20016;-86
2022/07/27 11:08:44;;;;;;;8.98;8.07;;;;;;;38.93;20.88;98752.66;5036843;28;20053;-86
2022/07/27 11:11:19;;;;;;;9.65;8.75;;;;;;;40.44;20.49;98938.13;5030119;28;20490;-85
2022/07/27 11:13:46;;;;;;;10.23;9.32;;;;;;;40.25;21.19;98894.97;5027133;28;20387;-84
2022/07/27 11:16:14;;;;;;;9.20;8.48;;;;;;;40.68;21.02;98940.13;5021074;28;20418;-86
2022/07/27 11:18:41;;;;;;;8.82;7.93;;;;;;;40.74;20.59;98937.75;5030135;28;20552;-85
2022/07/27 11:21:17;;;;;;;8.40;7.70;;;;;;;40.78;19.48;98925.53;5032576;28;20029;-86
2022/07/27 11:23:45;;;;;;;10.93;9.93;;;;;;;40.35;20.30;98841.63;5031058;28;20447;-85
2022/07/27 11:26:10;;;;;;;10.07;9.18;;;;;;;41.03;20.32;98931.06;5019897;28;20025;-86